Terminal Aerodrome Forecast
Issued by NWS

Home | Current Version | Previous Version | Text Only | Print | Product List | Glossary On
Versions: 1 2 3 4 5 6 7 8 9 10 11 12 13
000
FTUS44 KLZK 181700
TAFPBF
TAF
KPBF 181739Z 1818/1918 03008KT P6SM SCT050 SCT100
     FM190000 02003KT P6SM SKC
     FM191400 05005KT P6SM SCT250=

USA.gov is the U.S. government's official web portal to all federal, state and local government web resources and services.